sensor_id;sensor_type;location;lat;lon;timestamp;pressure;altitude;pressure_sealevel;temperature;humidity
77979;BME280;67169;50.268;8.694;2023-08-06T00:01:23;98829.00;;;14.74;100.00
77979;BME280;67169;50.268;8.694;2023-08-06T00:03:50;98823.47;;;14.75;100.00
77979;BME280;67169;50.268;8.694;2023-08-06T00:06:19;98830.72;;;14.75;100.00
77979;BME280;67169;50.268;8.694;2023-08-06T00:08:45;98812.22;;;14.68;100.00
77979;BME280;67169;50.268;8.694;2023-08-06T00:11:12;98791.22;;;14.59;100.00
77979;BME280;67169;50.268;8.694;2023-08-06T00:13:39;98823.38;;;14.77;100.00
77979;BME280;67169;50.268;8.694;2023-08-06T00:16:10;98799.09;;;14.62;100.00
77979;BME280;67169;50.268;8.694;2023-08-06T00:18:36;98821.53;;;14.77;100.00
77979;BME280;67169;50.268;8.694;2023-08-06T00:21:03;98762.59;;;14.42;100.00
77979;BME280;67169;50.268;8.694;2023-08-06T00:23:31;98819.78;;;14.76;100.00
77979;BME280;67169;50.268;8.694;2023-08-06T00:25:58;98810.91;;;14.74;100.00
77979;BME280;67169;50.268;8.694;2023-08-06T00:28:24;98816.22;;;14.76;100.00
77979;BME280;67169;50.268;8.694;2023-08-06T00:30:52;98790.13;;;14.75;100.00
77979;BME280;67169;50.268;8.694;2023-08-06T00:33:19;98788.19;;;14.77;100.00
77979;BME280;67169;50.268;8.694;2023-08-06T00:35:46;98791.41;;;14.82;100.00
77979;BME280;67169;50.268;8.694;2023-08-06T00:38:13;98790.44;;;14.83;100.00
77979;BME280;67169;50.268;8.694;2023-08-06T00:40:41;98786.88;;;14.82;100.00
77979;BME280;67169;50.268;8.694;2023-08-06T00:43:08;98779.09;;;14.78;100.00
77979;BME280;67169;50.268;8.694;2023-08-06T00:45:35;98784.50;;;14.78;99.75
77979;BME280;67169;50.268;8.694;2023-08-06T00:48:04;98777.16;;;14.80;99.96
77979;BME280;67169;50.268;8.694;2023-08-06T00:50:31;98772.91;;;14.76;100.00
77979;BME280;67169;50.268;8.694;2023-08-06T00:52:58;98781.88;;;14.76;99.75
77979;BME280;67169;50.268;8.694;2023-08-06T00:55:25;98775.81;;;14.72;100.00
77979;BME280;67169;50.268;8.694;2023-08-06T00:57:54;98774.97;;;14.72;99.96
77979;BME280;67169;50.268;8.694;2023-08-06T01:00:22;98764.59;;;14.66;100.00
77979;BME280;67169;50.268;8.694;2023-08-06T01:02:49;98765.97;;;14.71;100.00
77979;BME280;67169;50.268;8.694;2023-08-06T01:05:15;98768.03;;;14.68;99.76
77979;BME280;67169;50.268;8.694;2023-08-06T01:07:51;98758.94;;;14.69;99.84
77979;BME280;67169;50.268;8.694;2023-08-06T01:10:24;98751.38;;;14.61;100.00
77979;BME280;67169;50.268;8.694;2023-08-06T01:13:05;98766.31;;;14.67;99.87
77979;BME280;67169;50.268;8.694;2023-08-06T01:15:39;98758.06;;;14.68;99.77
77979;BME280;67169;50.268;8.694;2023-08-06T01:18:07;98758.28;;;14.65;99.78
77979;BME280;67169;50.268;8.694;2023-08-06T01:20:35;98744.97;;;14.62;99.76
77979;BME280;67169;50.268;8.694;2023-08-06T01:23:02;98740.34;;;14.64;99.81
77979;BME280;67169;50.268;8.694;2023-08-06T01:25:33;98743.81;;;14.66;100.00
77979;BME280;67169;50.268;8.694;2023-08-06T01:28:06;98749.66;;;14.73;99.83
77979;BME280;67169;50.268;8.694;2023-08-06T01:30:39;98734.69;;;14.67;99.53
77979;BME280;67169;50.268;8.694;2023-08-06T01:33:10;98742.19;;;14.64;99.58
77979;BME280;67169;50.268;8.694;2023-08-06T01:35:42;98738.41;;;14.66;99.59
77979;BME280;67169;50.268;8.694;2023-08-06T01:38:09;98730.16;;;14.68;99.63
77979;BME280;67169;50.268;8.694;2023-08-06T01:40:35;98729.41;;;14.66;99.55
77979;BME280;67169;50.268;8.694;2023-08-06T01:43:02;98727.78;;;14.63;99.88
77979;BME280;67169;50.268;8.694;2023-08-06T01:45:28;98721.03;;;14.69;99.74
77979;BME280;67169;50.268;8.694;2023-08-06T01:47:55;98718.47;;;14.67;99.63
77979;BME280;67169;50.268;8.694;2023-08-06T01:50:21;98721.50;;;14.63;99.49
77979;BME280;67169;50.268;8.694;2023-08-06T01:52:49;98714.47;;;14.60;100.00
77979;BME280;67169;50.268;8.694;2023-08-06T01:55:16;98691.94;;;14.47;100.00
77979;BME280;67169;50.268;8.694;2023-08-06T01:57:43;98696.09;;;14.53;100.00
77979;BME280;67169;50.268;8.694;2023-08-06T02:00:11;98691.63;;;14.64;100.00
77979;BME280;67169;50.268;8.694;2023-08-06T02:02:38;98678.22;;;14.50;100.00
77979;BME280;67169;50.268;8.694;2023-08-06T02:05:06;98696.59;;;14.58;99.91
77979;BME280;67169;50.268;8.694;2023-08-06T02:07:33;98699.31;;;14.58;100.00
77979;BME280;67169;50.268;8.694;2023-08-06T02:10:01;98677.78;;;14.56;99.86
77979;BME280;67169;50.268;8.694;2023-08-06T02:12:27;98685.91;;;14.56;100.00
77979;BME280;67169;50.268;8.694;2023-08-06T02:14:54;98684.06;;;14.57;100.00
77979;BME280;67169;50.268;8.694;2023-08-06T02:17:20;98683.06;;;14.58;100.00
77979;BME280;67169;50.268;8.694;2023-08-06T02:19:47;98684.69;;;14.60;100.00
77979;BME280;67169;50.268;8.694;2023-08-06T02:22:13;98621.16;;;14.28;99.70
77979;BME280;67169;50.268;8.694;2023-08-06T02:24:40;98672.81;;;14.63;99.82
77979;BME280;67169;50.268;8.694;2023-08-06T02:27:08;98659.56;;;14.58;100.00
77979;BME280;67169;50.268;8.694;2023-08-06T02:29:35;98661.34;;;14.59;99.91
77979;BME280;67169;50.268;8.694;2023-08-06T02:32:01;98662.19;;;14.60;99.43
77979;BME280;67169;50.268;8.694;2023-08-06T02:34:28;98651.47;;;14.58;99.50
77979;BME280;67169;50.268;8.694;2023-08-06T02:36:54;98658.72;;;14.58;99.80
77979;BME280;67169;50.268;8.694;2023-08-06T02:39:21;98665.00;;;14.58;99.76
77979;BME280;67169;50.268;8.694;2023-08-06T02:41:48;98643.22;;;14.47;100.00
77979;BME280;67169;50.268;8.694;2023-08-06T02:44:16;98652.44;;;14.57;100.00
77979;BME280;67169;50.268;8.694;2023-08-06T02:46:44;98645.81;;;14.61;100.00
77979;BME280;67169;50.268;8.694;2023-08-06T02:49:10;98656.56;;;14.63;100.00
77979;BME280;67169;50.268;8.694;2023-08-06T02:51:37;98668.25;;;14.63;100.00
77979;BME280;67169;50.268;8.694;2023-08-06T02:54:03;98656.56;;;14.63;100.00
77979;BME280;67169;50.268;8.694;2023-08-06T02:56:30;98651.38;;;14.60;100.00
77979;BME280;67169;50.268;8.694;2023-08-06T02:58:57;98648.75;;;14.58;99.88
77979;BME280;67169;50.268;8.694;2023-08-06T03:01:25;98633.81;;;14.40;100.00
77979;BME280;67169;50.268;8.694;2023-08-06T03:03:52;98638.50;;;14.51;100.00
77979;BME280;67169;50.268;8.694;2023-08-06T03:06:18;98634.03;;;14.49;99.97
77979;BME280;67169;50.268;8.694;2023-08-06T03:08:45;98649.63;;;14.59;100.00
77979;BME280;67169;50.268;8.694;2023-08-06T03:11:12;98644.66;;;14.53;100.00
77979;BME280;67169;50.268;8.694;2023-08-06T03:13:38;98640.84;;;14.55;100.00
77979;BME280;67169;50.268;8.694;2023-08-06T03:16:05;98629.91;;;14.44;100.00
77979;BME280;67169;50.268;8.694;2023-08-06T03:18:32;98611.13;;;14.30;100.00
77979;BME280;67169;50.268;8.694;2023-08-06T03:20:59;98631.63;;;14.45;100.00
77979;BME280;67169;50.268;8.694;2023-08-06T03:23:26;98617.59;;;14.40;100.00
77979;BME280;67169;50.268;8.694;2023-08-06T03:25:52;98615.41;;;14.45;100.00
77979;BME280;67169;50.268;8.694;2023-08-06T03:28:19;98619.66;;;14.49;99.80
77979;BME280;67169;50.268;8.694;2023-08-06T03:30:45;98622.78;;;14.43;99.83
77979;BME280;67169;50.268;8.694;2023-08-06T03:33:12;98613.03;;;14.40;100.00
77979;BME280;67169;50.268;8.694;2023-08-06T03:35:40;98620.31;;;14.40;100.00
77979;BME280;67169;50.268;8.694;2023-08-06T03:38:07;98622.16;;;14.39;100.00
77979;BME280;67169;50.268;8.694;2023-08-06T03:40:34;98623.66;;;14.43;100.00
77979;BME280;67169;50.268;8.694;2023-08-06T03:43:01;98612.81;;;14.43;100.00
77979;BME280;67169;50.268;8.694;2023-08-06T03:45:27;98612.69;;;14.45;99.74
77979;BME280;67169;50.268;8.694;2023-08-06T03:47:54;98611.53;;;14.49;99.19
77979;BME280;67169;50.268;8.694;2023-08-06T03:50:21;98616.19;;;14.47;98.85
77979;BME280;67169;50.268;8.694;2023-08-06T03:52:49;98607.53;;;14.42;99.03
77979;BME280;67169;50.268;8.694;2023-08-06T03:55:15;98611.53;;;14.49;98.53
77979;BME280;67169;50.268;8.694;2023-08-06T03:57:42;98598.88;;;14.37;98.90
77979;BME280;67169;50.268;8.694;2023-08-06T04:00:09;98590.97;;;14.34;98.85
77979;BME280;67169;50.268;8.694;2023-08-06T04:02:35;98608.28;;;14.44;99.28
77979;BME280;67169;50.268;8.694;2023-08-06T04:05:02;98598.78;;;14.38;98.89
77979;BME280;67169;50.268;8.694;2023-08-06T04:07:29;98603.50;;;14.47;98.91
77979;BME280;67169;50.268;8.694;2023-08-06T04:09:58;98600.81;;;14.47;98.49
77979;BME280;67169;50.268;8.694;2023-08-06T04:12:25;98600.94;;;14.46;98.36
77979;BME280;67169;50.268;8.694;2023-08-06T04:14:52;98603.09;;;14.54;98.14
77979;BME280;67169;50.268;8.694;2023-08-06T04:17:19;98598.97;;;14.61;97.66
77979;BME280;67169;50.268;8.694;2023-08-06T04:19:47;98602.47;;;14.50;97.09
77979;BME280;67169;50.268;8.694;2023-08-06T04:22:14;98606.56;;;14.56;97.49
77979;BME280;67169;50.268;8.694;2023-08-06T04:24:41;98608.38;;;14.55;96.78
77979;BME280;67169;50.268;8.694;2023-08-06T04:27:09;98594.13;;;14.53;96.85
77979;BME280;67169;50.268;8.694;2023-08-06T04:29:36;98604.94;;;14.53;96.73
77979;BME280;67169;50.268;8.694;2023-08-06T04:32:05;98597.06;;;14.50;96.80
77979;BME280;67169;50.268;8.694;2023-08-06T04:34:31;98594.03;;;14.42;97.08
77979;BME280;67169;50.268;8.694;2023-08-06T04:36:58;98605.69;;;14.42;97.62
77979;BME280;67169;50.268;8.694;2023-08-06T04:39:25;98606.91;;;14.38;98.25
77979;BME280;67169;50.268;8.694;2023-08-06T04:41:51;98602.88;;;14.31;98.73
77979;BME280;67169;50.268;8.694;2023-08-06T04:44:20;98585.72;;;14.19;98.66
77979;BME280;67169;50.268;8.694;2023-08-06T04:46:47;98594.25;;;14.26;98.79
77979;BME280;67169;50.268;8.694;2023-08-06T04:49:13;98594.34;;;14.24;98.81
77979;BME280;67169;50.268;8.694;2023-08-06T04:51:40;98584.72;;;14.20;98.62
77979;BME280;67169;50.268;8.694;2023-08-06T04:54:06;98596.19;;;14.24;98.11
77979;BME280;67169;50.268;8.694;2023-08-06T04:56:33;98596.09;;;14.25;97.74
77979;BME280;67169;50.268;8.694;2023-08-06T04:59:00;98600.31;;;14.30;97.69
77979;BME280;67169;50.268;8.694;2023-08-06T05:01:27;98594.66;;;14.33;97.43
77979;BME280;67169;50.268;8.694;2023-08-06T05:03:55;98580.19;;;14.21;97.49
77979;BME280;67169;50.268;8.694;2023-08-06T05:06:21;98576.53;;;14.22;97.51
77979;BME280;67169;50.268;8.694;2023-08-06T05:08:48;98597.03;;;14.37;96.61
77979;BME280;67169;50.268;8.694;2023-08-06T05:11:14;98602.13;;;14.42;96.61
77979;BME280;67169;50.268;8.694;2023-08-06T05:13:41;98603.72;;;14.44;95.80
77979;BME280;67169;50.268;8.694;2023-08-06T05:16:08;98606.56;;;14.43;94.83
77979;BME280;67169;50.268;8.694;2023-08-06T05:18:35;98595.53;;;14.33;95.28
77979;BME280;67169;50.268;8.694;2023-08-06T05:21:03;98607.84;;;14.37;95.84
77979;BME280;67169;50.268;8.694;2023-08-06T05:23:29;98603.88;;;14.30;97.06
77979;BME280;67169;50.268;8.694;2023-08-06T05:25:56;98606.06;;;14.25;97.90
77979;BME280;67169;50.268;8.694;2023-08-06T05:28:22;98609.63;;;14.25;97.75
77979;BME280;67169;50.268;8.694;2023-08-06T05:30:49;98609.06;;;14.20;98.04
77979;BME280;67169;50.268;8.694;2023-08-06T05:33:15;98595.66;;;14.06;97.92
77979;BME280;67169;50.268;8.694;2023-08-06T05:35:43;98607.38;;;13.94;98.23
77979;BME280;67169;50.268;8.694;2023-08-06T05:38:10;98611.88;;;13.93;99.38
77979;BME280;67169;50.268;8.694;2023-08-06T05:40:37;98618.69;;;13.86;100.00
77979;BME280;67169;50.268;8.694;2023-08-06T05:43:03;98615.88;;;13.75;100.00
77979;BME280;67169;50.268;8.694;2023-08-06T05:45:30;98613.94;;;13.64;100.00
77979;BME280;67169;50.268;8.694;2023-08-06T05:47:56;98613.16;;;13.62;100.00
77979;BME280;67169;50.268;8.694;2023-08-06T05:50:24;98616.94;;;13.72;100.00
77979;BME280;67169;50.268;8.694;2023-08-06T05:52:52;98621.63;;;13.70;100.00
77979;BME280;67169;50.268;8.694;2023-08-06T05:55:19;98621.06;;;13.65;100.00
77979;BME280;67169;50.268;8.694;2023-08-06T05:57:46;98618.47;;;13.64;100.00
77979;BME280;67169;50.268;8.694;2023-08-06T06:00:13;98621.91;;;13.66;100.00
77979;BME280;67169;50.268;8.694;2023-08-06T06:02:39;98610.44;;;13.62;100.00
77979;BME280;67169;50.268;8.694;2023-08-06T06:05:06;98608.63;;;13.63;100.00
77979;BME280;67169;50.268;8.694;2023-08-06T06:07:33;98611.34;;;13.63;100.00
77979;BME280;67169;50.268;8.694;2023-08-06T06:10:01;98606.59;;;13.66;100.00
77979;BME280;67169;50.268;8.694;2023-08-06T06:12:28;98615.44;;;13.68;100.00
77979;BME280;67169;50.268;8.694;2023-08-06T06:14:54;98611.53;;;13.72;100.00
77979;BME280;67169;50.268;8.694;2023-08-06T06:17:21;98618.25;;;13.80;100.00
77979;BME280;67169;50.268;8.694;2023-08-06T06:19:48;98605.06;;;13.75;100.00
77979;BME280;67169;50.268;8.694;2023-08-06T06:22:14;98609.19;;;13.81;100.00
77979;BME280;67169;50.268;8.694;2023-08-06T06:24:41;98613.94;;;13.77;100.00
77979;BME280;67169;50.268;8.694;2023-08-06T06:27:09;98610.59;;;13.73;100.00
77979;BME280;67169;50.268;8.694;2023-08-06T06:29:35;98615.22;;;13.71;100.00
77979;BME280;67169;50.268;8.694;2023-08-06T06:32:02;98607.78;;;13.75;100.00
77979;BME280;67169;50.268;8.694;2023-08-06T06:34:28;98609.75;;;13.73;100.00
77979;BME280;67169;50.268;8.694;2023-08-06T06:36:55;98617.38;;;13.79;100.00
77979;BME280;67169;50.268;8.694;2023-08-06T06:39:22;98610.78;;;13.83;100.00
77979;BME280;67169;50.268;8.694;2023-08-06T06:41:48;98612.56;;;13.84;100.00
77979;BME280;67169;50.268;8.694;2023-08-06T06:44:16;98613.41;;;13.85;100.00
77979;BME280;67169;50.268;8.694;2023-08-06T06:46:45;98607.66;;;13.89;100.00
77979;BME280;67169;50.268;8.694;2023-08-06T06:49:11;98606.81;;;13.89;100.00
77979;BME280;67169;50.268;8.694;2023-08-06T06:51:38;98616.78;;;14.01;100.00
77979;BME280;67169;50.268;8.694;2023-08-06T06:54:04;98610.25;;;14.04;100.00
77979;BME280;67169;50.268;8.694;2023-08-06T06:56:31;98609.09;;;14.08;100.00
77979;BME280;67169;50.268;8.694;2023-08-06T06:58:58;98607.78;;;14.13;100.00
77979;BME280;67169;50.268;8.694;2023-08-06T07:01:26;98611.34;;;14.14;100.00
77979;BME280;67169;50.268;8.694;2023-08-06T07:03:52;98607.03;;;14.11;100.00
77979;BME280;67169;50.268;8.694;2023-08-06T07:06:19;98590.03;;;13.96;100.00
77979;BME280;67169;50.268;8.694;2023-08-06T07:08:47;98597.41;;;13.82;100.00
77979;BME280;67169;50.268;8.694;2023-08-06T07:11:14;98610.06;;;13.94;100.00
77979;BME280;67169;50.268;8.694;2023-08-06T07:13:40;98614.59;;;13.93;100.00
77979;BME280;67169;50.268;8.694;2023-08-06T07:16:07;98598.28;;;13.95;100.00
77979;BME280;67169;50.268;8.694;2023-08-06T07:18:35;98620.75;;;13.95;100.00
77979;BME280;67169;50.268;8.694;2023-08-06T07:21:02;98615.69;;;13.91;100.00
77979;BME280;67169;50.268;8.694;2023-08-06T07:23:28;98615.91;;;13.88;100.00
77979;BME280;67169;50.268;8.694;2023-08-06T07:25:55;98560.31;;;13.58;100.00
77979;BME280;67169;50.268;8.694;2023-08-06T07:28:21;98605.06;;;13.75;100.00
77979;BME280;67169;50.268;8.694;2023-08-06T07:30:48;98606.28;;;13.84;100.00
77979;BME280;67169;50.268;8.694;2023-08-06T07:33:14;98608.97;;;13.84;100.00
77979;BME280;67169;50.268;8.694;2023-08-06T07:35:42;98608.09;;;13.83;100.00
77979;BME280;67169;50.268;8.694;2023-08-06T07:38:09;98613.84;;;13.91;100.00
77979;BME280;67169;50.268;8.694;2023-08-06T07:40:36;98609.72;;;13.98;100.00
77979;BME280;67169;50.268;8.694;2023-08-06T07:43:03;98611.88;;;14.06;100.00
77979;BME280;67169;50.268;8.694;2023-08-06T07:45:32;98597.94;;;14.12;100.00
77979;BME280;67169;50.268;8.694;2023-08-06T07:47:59;98597.94;;;14.12;100.00
77979;BME280;67169;50.268;8.694;2023-08-06T07:50:26;98607.78;;;14.13;100.00
77979;BME280;67169;50.268;8.694;2023-08-06T07:52:54;98586.25;;;13.99;100.00
77979;BME280;67169;50.268;8.694;2023-08-06T07:55:20;98590.59;;;13.89;100.00
77979;BME280;67169;50.268;8.694;2023-08-06T07:57:47;98607.69;;;14.02;100.00
77979;BME280;67169;50.268;8.694;2023-08-06T08:00:14;98602.91;;;14.06;100.00
77979;BME280;67169;50.268;8.694;2023-08-06T08:02:40;98605.31;;;13.97;100.00
77979;BME280;67169;50.268;8.694;2023-08-06T08:05:07;98589.09;;;13.85;100.00
77979;BME280;67169;50.268;8.694;2023-08-06T08:07:34;98603.78;;;13.93;100.00
77979;BME280;67169;50.268;8.694;2023-08-06T08:10:02;98603.47;;;13.98;100.00
77979;BME280;67169;50.268;8.694;2023-08-06T08:12:30;98602.06;;;14.05;100.00
77979;BME280;67169;50.268;8.694;2023-08-06T08:14:57;98599.00;;;14.10;100.00
77979;BME280;67169;50.268;8.694;2023-08-06T08:17:23;98596.22;;;14.11;100.00
77979;BME280;67169;50.268;8.694;2023-08-06T08:19:50;98580.84;;;14.12;100.00
77979;BME280;67169;50.268;8.694;2023-08-06T08:22:16;98586.34;;;14.23;100.00
77979;BME280;67169;50.268;8.694;2023-08-06T08:24:43;98594.47;;;14.23;100.00
77979;BME280;67169;50.268;8.694;2023-08-06T08:27:11;98600.09;;;14.33;100.00
77979;BME280;67169;50.268;8.694;2023-08-06T08:29:37;98595.94;;;14.40;100.00
77979;BME280;67169;50.268;8.694;2023-08-06T08:32:04;98597.56;;;14.55;100.00
77979;BME280;67169;50.268;8.694;2023-08-06T08:34:31;98600.28;;;14.55;100.00
77979;BME280;67169;50.268;8.694;2023-08-06T08:36:58;98590.97;;;14.59;100.00
77979;BME280;67169;50.268;8.694;2023-08-06T08:39:24;98603.31;;;14.63;100.00
77979;BME280;67169;50.268;8.694;2023-08-06T08:41:51;98595.06;;;14.65;100.00
77979;BME280;67169;50.268;8.694;2023-08-06T08:44:20;98584.41;;;14.75;100.00
77979;BME280;67169;50.268;8.694;2023-08-06T08:46:47;98495.50;;;14.57;100.00
77979;BME280;67169;50.268;8.694;2023-08-06T08:49:14;98579.81;;;15.47;100.00
77979;BME280;67169;50.268;8.694;2023-08-06T08:51:41;98587.72;;;15.50;100.00
77979;BME280;67169;50.268;8.694;2023-08-06T08:54:11;98552.72;;;15.36;98.09
77979;BME280;67169;50.268;8.694;2023-08-06T08:56:39;98575.78;;;15.53;97.79
77979;BME280;67169;50.268;8.694;2023-08-06T08:59:06;98583.66;;;15.80;97.61
77979;BME280;67169;50.268;8.694;2023-08-06T09:01:34;98580.97;;;16.13;96.25
77979;BME280;67169;50.268;8.694;2023-08-06T09:04:02;98580.84;;;16.37;94.97
77979;BME280;67169;50.268;8.694;2023-08-06T09:06:30;98583.19;;;16.42;92.13
77979;BME280;67169;50.268;8.694;2023-08-06T09:09:05;98573.78;;;16.57;91.47
77979;BME280;67169;50.268;8.694;2023-08-06T09:11:36;98576.13;;;16.73;91.11
77979;BME280;67169;50.268;8.694;2023-08-06T09:14:06;98547.34;;;16.93;89.59
77979;BME280;67169;50.268;8.694;2023-08-06T09:16:35;98576.72;;;16.88;87.56
77979;BME280;67169;50.268;8.694;2023-08-06T09:19:07;98577.09;;;17.27;89.52
77979;BME280;67169;50.268;8.694;2023-08-06T09:21:36;98574.97;;;17.63;87.65
77979;BME280;67169;50.268;8.694;2023-08-06T09:24:07;98576.56;;;17.33;84.83
77979;BME280;67169;50.268;8.694;2023-08-06T09:26:34;98570.97;;;17.67;84.54
77979;BME280;67169;50.268;8.694;2023-08-06T09:29:00;98563.59;;;17.99;83.09
77979;BME280;67169;50.268;8.694;2023-08-06T09:31:32;98571.41;;;18.35;80.97
77979;BME280;67169;50.268;8.694;2023-08-06T09:34:02;98566.34;;;18.30;80.71
77979;BME280;67169;50.268;8.694;2023-08-06T09:36:28;98558.97;;;18.42;80.74
77979;BME280;67169;50.268;8.694;2023-08-06T09:38:55;98566.44;;;18.49;78.72
77979;BME280;67169;50.268;8.694;2023-08-06T09:41:26;98530.09;;;18.70;77.02
77979;BME280;67169;50.268;8.694;2023-08-06T09:43:53;98567.75;;;19.54;76.65
77979;BME280;67169;50.268;8.694;2023-08-06T09:46:20;98967.13;;;20.12;74.54
77979;BME280;67169;50.268;8.694;2023-08-06T09:48:47;98574.50;;;19.50;76.35
77979;BME280;67169;50.268;8.694;2023-08-06T09:51:16;98564.91;;;19.55;76.53
77979;BME280;67169;50.268;8.694;2023-08-06T09:53:43;98547.00;;;20.09;76.42
77979;BME280;67169;50.268;8.694;2023-08-06T09:56:10;98563.72;;;19.87;77.55
77979;BME280;67169;50.268;8.694;2023-08-06T09:58:38;98554.00;;;19.65;72.92
77979;BME280;67169;50.268;8.694;2023-08-06T10:01:06;98555.72;;;19.27;74.20
77979;BME280;67169;50.268;8.694;2023-08-06T10:03:33;98557.00;;;19.33;74.96
77979;BME280;67169;50.268;8.694;2023-08-06T10:06:00;98552.38;;;18.94;75.54
77979;BME280;67169;50.268;8.694;2023-08-06T10:08:32;98537.63;;;19.36;68.42
77979;BME280;67169;50.268;8.694;2023-08-06T10:11:00;98548.88;;;20.09;66.38
77979;BME280;67169;50.268;8.694;2023-08-06T10:13:29;98549.16;;;20.80;62.55
77979;BME280;67169;50.268;8.694;2023-08-06T10:15:56;98547.03;;;20.74;64.03
77979;BME280;67169;50.268;8.694;2023-08-06T10:18:23;98548.63;;;21.13;64.57
77979;BME280;67169;50.268;8.694;2023-08-06T10:20:50;98533.28;;;21.47;63.55
77979;BME280;67169;50.268;8.694;2023-08-06T10:23:16;98532.47;;;21.73;61.80
77979;BME280;67169;50.268;8.694;2023-08-06T10:25:53;98518.59;;;21.74;61.21
77979;BME280;67169;50.268;8.694;2023-08-06T10:28:20;98533.41;;;21.28;63.48
77979;BME280;67169;50.268;8.694;2023-08-06T10:30:47;98535.66;;;20.51;65.80
77979;BME280;67169;50.268;8.694;2023-08-06T10:33:15;98528.06;;;19.98;66.50
77979;BME280;67169;50.268;8.694;2023-08-06T10:35:43;98514.78;;;20.13;66.68
77979;BME280;67169;50.268;8.694;2023-08-06T10:38:11;98536.78;;;19.35;68.46
77979;BME280;67169;50.268;8.694;2023-08-06T10:40:40;98541.22;;;19.65;67.02
77979;BME280;67169;50.268;8.694;2023-08-06T10:43:25;98534.16;;;19.34;66.15
77979;BME280;67169;50.268;8.694;2023-08-06T10:45:51;98536.28;;;18.82;67.99
77979;BME280;67169;50.268;8.694;2023-08-06T10:48:28;98537.31;;;18.81;69.09
77979;BME280;67169;50.268;8.694;2023-08-06T10:50:56;98533.63;;;18.61;70.93
77979;BME280;67169;50.268;8.694;2023-08-06T10:53:22;98536.66;;;18.67;70.96
77979;BME280;67169;50.268;8.694;2023-08-06T10:55:49;98537.75;;;18.45;70.22
77979;BME280;67169;50.268;8.694;2023-08-06T10:58:17;98543.38;;;18.23;70.86
77979;BME280;67169;50.268;8.694;2023-08-06T11:00:44;98538.69;;;18.25;72.03
77979;BME280;67169;50.268;8.694;2023-08-06T11:03:10;98524.28;;;18.13;74.03
77979;BME280;67169;50.268;8.694;2023-08-06T11:05:37;98529.34;;;18.18;73.58
77979;BME280;67169;50.268;8.694;2023-08-06T11:08:04;98527.25;;;18.31;73.83
77979;BME280;67169;50.268;8.694;2023-08-06T11:10:32;98506.72;;;18.27;73.76
77979;BME280;67169;50.268;8.694;2023-08-06T11:13:00;98531.66;;;18.22;73.40
77979;BME280;67169;50.268;8.694;2023-08-06T11:15:29;98534.41;;;18.32;71.08
77979;BME280;67169;50.268;8.694;2023-08-06T11:17:56;98528.22;;;18.30;72.16
77979;BME280;67169;50.268;8.694;2023-08-06T11:20:24;98528.91;;;18.63;71.28
77979;BME280;67169;50.268;8.694;2023-08-06T11:22:50;98530.84;;;18.91;69.88
77979;BME280;67169;50.268;8.694;2023-08-06T11:25:20;98519.72;;;19.14;68.60
77979;BME280;67169;50.268;8.694;2023-08-06T11:27:47;98539.22;;;20.14;64.55
77979;BME280;67169;50.268;8.694;2023-08-06T11:30:14;98553.09;;;20.96;61.00
77979;BME280;67169;50.268;8.694;2023-08-06T11:32:48;98538.34;;;21.60;60.89
77979;BME280;67169;50.268;8.694;2023-08-06T11:35:15;98540.81;;;21.89;57.74
77979;BME280;67169;50.268;8.694;2023-08-06T11:37:44;98537.44;;;21.77;58.38
77979;BME280;67169;50.268;8.694;2023-08-06T11:40:11;98549.13;;;22.32;56.24
77979;BME280;67169;50.268;8.694;2023-08-06T11:42:38;98534.28;;;21.46;57.28
77979;BME280;67169;50.268;8.694;2023-08-06T11:45:05;98544.19;;;21.12;59.68
77979;BME280;67169;50.268;8.694;2023-08-06T11:47:34;98549.56;;;20.58;60.29
77979;BME280;67169;50.268;8.694;2023-08-06T11:50:02;98549.66;;;20.66;60.34
77979;BME280;67169;50.268;8.694;2023-08-06T11:52:30;98548.25;;;20.62;60.68
77979;BME280;67169;50.268;8.694;2023-08-06T11:55:00;98546.44;;;20.43;61.14
77979;BME280;67169;50.268;8.694;2023-08-06T11:57:29;98555.38;;;19.98;64.61
77979;BME280;67169;50.268;8.694;2023-08-06T11:59:58;98568.41;;;18.47;68.83
77979;BME280;67169;50.268;8.694;2023-08-06T12:02:25;98573.41;;;17.17;76.57
77979;BME280;67169;50.268;8.694;2023-08-06T12:05:03;98610.69;;;16.26;81.95
77979;BME280;67169;50.268;8.694;2023-08-06T12:07:31;98607.38;;;16.11;85.49
77979;BME280;67169;50.268;8.694;2023-08-06T12:09:58;98598.00;;;16.04;86.75
77979;BME280;67169;50.268;8.694;2023-08-06T12:12:25;98605.13;;;16.05;87.17
77979;BME280;67169;50.268;8.694;2023-08-06T12:14:52;98596.34;;;15.55;86.95
77979;BME280;67169;50.268;8.694;2023-08-06T12:17:18;98595.91;;;15.37;88.52
77979;BME280;67169;50.268;8.694;2023-08-06T12:19:45;98606.75;;;15.37;89.87
77979;BME280;67169;50.268;8.694;2023-08-06T12:22:14;98598.38;;;15.29;89.97
77979;BME280;67169;50.268;8.694;2023-08-06T12:24:41;98586.38;;;15.20;89.07
77979;BME280;67169;50.268;8.694;2023-08-06T12:27:07;98590.47;;;15.02;88.53
77979;BME280;67169;50.268;8.694;2023-08-06T12:29:34;98610.25;;;14.91;88.46
77979;BME280;67169;50.268;8.694;2023-08-06T12:32:01;98595.66;;;14.81;88.84
77979;BME280;67169;50.268;8.694;2023-08-06T12:34:27;98622.88;;;14.67;88.32
77979;BME280;67169;50.268;8.694;2023-08-06T12:36:54;98632.31;;;14.61;89.35
77979;BME280;67169;50.268;8.694;2023-08-06T12:39:22;98634.50;;;14.56;89.72
77979;BME280;67169;50.268;8.694;2023-08-06T12:41:49;98636.09;;;14.46;90.78
77979;BME280;67169;50.268;8.694;2023-08-06T12:44:15;98623.34;;;14.35;90.82
77979;BME280;67169;50.268;8.694;2023-08-06T12:46:42;98641.94;;;14.27;89.63
77979;BME280;67169;50.268;8.694;2023-08-06T12:49:08;98644.69;;;14.14;89.81
77979;BME280;67169;50.268;8.694;2023-08-06T12:51:35;98647.25;;;14.03;90.06
77979;BME280;67169;50.268;8.694;2023-08-06T12:54:01;98634.69;;;13.89;89.45
77979;BME280;67169;50.268;8.694;2023-08-06T12:56:29;98660.88;;;14.01;88.84